Time;durP1;ratioP1;P1;durP2;ratioP2;P2;SDS_P1;SDS_P2;PMS_P1;PMS_P2;Temp;Humidity;BMP_temperature;BMP_pressure;BME280_temperature;BME280_humidity;BME280_pressure;Samples;Min_cycle;Max_cycle;Signal;HPM_P1;HPM_P2
2023/01/28 00:02:05;;;;;;;8.55;5.68;;;2.30;99.90;;;;;;4993236;28;20414;-63
2023/01/28 00:04:32;;;;;;;8.32;5.35;;;2.30;99.90;;;;;;4992425;28;20050;-63
2023/01/28 00:06:59;;;;;;;7.43;5.60;;;2.30;99.90;;;;;;4992396;28;20053;-63
2023/01/28 00:09:27;;;;;;;7.82;5.28;;;2.30;99.90;;;;;;4993329;28;20401;-63
2023/01/28 00:11:54;;;;;;;7.35;5.63;;;2.30;99.90;;;;;;4975716;28;20065;-63
2023/01/28 00:14:21;;;;;;;6.22;5.28;;;2.30;99.90;;;;;;4975445;28;20046;-63
2023/01/28 00:16:48;;;;;;;6.75;5.40;;;2.30;99.90;;;;;;4974709;28;20402;-63
2023/01/28 00:19:15;;;;;;;9.50;5.18;;;2.30;99.90;;;;;;4974600;28;20057;-63
2023/01/28 00:21:42;;;;;;;6.53;5.38;;;2.30;99.90;;;;;;4973718;28;20042;-63
2023/01/28 00:24:09;;;;;;;7.65;6.20;;;2.20;99.90;;;;;;4974522;28;20517;-63
2023/01/28 00:26:38;;;;;;;9.15;5.72;;;2.20;99.90;;;;;;4970355;28;20495;-63
2023/01/28 00:29:05;;;;;;;8.38;7.13;;;2.30;99.90;;;;;;4973859;28;20082;-63
2023/01/28 00:31:33;;;;;;;9.27;5.90;;;2.30;99.90;;;;;;4974190;28;20038;-63
2023/01/28 00:34:00;;;;;;;8.88;6.68;;;2.30;99.90;;;;;;4972728;28;20141;-63
2023/01/28 00:36:27;;;;;;;10.20;6.50;;;2.30;99.90;;;;;;4973923;28;20059;-62
2023/01/28 00:38:55;;;;;;;8.70;6.15;;;2.30;99.90;;;;;;4974515;28;20145;-63
2023/01/28 00:41:24;;;;;;;10.00;6.47;;;2.40;99.90;;;;;;4972720;28;20043;-62
2023/01/28 00:43:53;;;;;;;9.45;6.90;;;2.40;99.90;;;;;;4974077;28;20046;-63
2023/01/28 00:46:22;;;;;;;8.07;6.57;;;2.40;99.90;;;;;;4957012;28;20062;-63
2023/01/28 00:48:49;;;;;;;9.70;7.15;;;2.40;99.90;;;;;;4956372;28;20109;-63
2023/01/28 00:51:18;;;;;;;6.82;5.65;;;2.40;99.90;;;;;;4956717;28;20051;-63
2023/01/28 00:53:45;;;;;;;9.38;6.88;;;2.40;99.90;;;;;;4974108;28;20094;-64
2023/01/28 00:56:14;;;;;;;6.40;5.15;;;2.40;99.90;;;;;;4973423;28;20133;-65
2023/01/28 00:58:42;;;;;;;5.63;4.50;;;2.30;99.90;;;;;;4972466;28;20426;-65
2023/01/28 01:01:12;;;;;;;5.93;4.75;;;2.30;99.90;;;;;;4971959;28;20043;-64
2023/01/28 01:03:40;;;;;;;6.50;4.88;;;2.30;99.90;;;;;;4956224;28;20138;-63
2023/01/28 01:06:07;;;;;;;5.40;3.83;;;2.30;99.90;;;;;;4973733;28;20053;-64
2023/01/28 01:08:38;;;;;;;5.43;4.20;;;2.30;99.90;;;;;;4973872;28;20495;-65
2023/01/28 01:11:07;;;;;;;6.28;4.47;;;2.30;99.90;;;;;;4989973;28;20053;-64
2023/01/28 01:13:34;;;;;;;4.95;4.00;;;2.30;99.90;;;;;;4974710;28;20065;-64
2023/01/28 01:16:03;;;;;;;5.70;4.25;;;2.30;99.90;;;;;;4995889;28;20050;-65
2023/01/28 01:18:32;;;;;;;5.75;4.20;;;2.30;99.90;;;;;;4995838;28;20050;-65
2023/01/28 01:20:59;;;;;;;5.88;3.97;;;2.30;99.90;;;;;;4996035;28;20061;-64
2023/01/28 01:23:27;;;;;;;4.90;4.18;;;2.30;99.90;;;;;;4978910;28;20483;-65
2023/01/28 01:25:54;;;;;;;5.15;3.80;;;2.30;99.90;;;;;;4974525;28;20057;-65
2023/01/28 01:28:22;;;;;;;4.93;3.88;;;2.40;99.90;;;;;;4976390;28;20507;-64
2023/01/28 01:30:50;;;;;;;6.03;3.78;;;2.40;99.90;;;;;;4975787;28;20291;-65
2023/01/28 01:33:17;;;;;;;4.38;3.75;;;2.40;99.90;;;;;;4959584;28;20057;-64
2023/01/28 01:35:53;;;;;;;5.68;3.83;;;2.40;99.90;;;;;;4959096;28;20400;-64
2023/01/28 01:38:20;;;;;;;6.22;3.50;;;2.30;99.90;;;;;;4958712;28;20145;-65
2023/01/28 01:40:47;;;;;;;5.18;3.13;;;2.30;99.90;;;;;;4976314;28;20042;-64
2023/01/28 01:43:16;;;;;;;3.90;3.05;;;2.30;99.90;;;;;;4958331;28;20053;-62
2023/01/28 01:45:47;;;;;;;4.22;3.10;;;2.30;99.90;;;;;;4973117;28;20046;-62
2023/01/28 01:48:18;;;;;;;5.00;3.35;;;2.30;99.90;;;;;;4975407;28;20129;-63
2023/01/28 01:50:53;;;;;;;4.13;3.10;;;2.30;99.90;;;;;;4975939;28;20414;-62
2023/01/28 01:53:22;;;;;;;3.72;3.28;;;2.30;99.90;;;;;;4975553;28;20174;-62
2023/01/28 01:55:52;;;;;;;4.53;3.47;;;2.30;99.90;;;;;;4976125;28;20047;-64
2023/01/28 01:58:23;;;;;;;4.60;3.38;;;2.30;99.90;;;;;;4958702;28;20309;-63
2023/01/28 02:00:50;;;;;;;4.15;2.83;;;2.30;99.90;;;;;;4974699;28;20050;-63
2023/01/28 02:03:21;;;;;;;3.15;2.83;;;2.30;99.90;;;;;;4975977;28;20109;-63
2023/01/28 02:05:51;;;;;;;5.50;2.80;;;2.30;99.90;;;;;;4975423;28;20050;-63
2023/01/28 02:08:24;;;;;;;3.67;2.78;;;2.30;99.90;;;;;;4975381;28;20518;-63
2023/01/28 02:10:55;;;;;;;3.80;2.55;;;2.30;99.90;;;;;;4975656;28;20530;-63
2023/01/28 02:13:25;;;;;;;3.90;2.78;;;2.30;99.90;;;;;;4975198;28;20106;-63
2023/01/28 02:15:52;;;;;;;3.63;2.47;;;2.30;99.90;;;;;;4959044;28;20188;-63
2023/01/28 02:18:19;;;;;;;3.78;2.92;;;2.30;99.90;;;;;;4957914;28;20070;-63
2023/01/28 02:21:08;;;;;;;3.25;2.70;;;2.30;99.90;;;;;;4958096;28;20078;-62
2023/01/28 02:23:50;;;;;;;4.03;2.70;;;2.30;99.90;;;;;;4958986;28;20411;-62
2023/01/28 02:26:46;;;;;;;3.60;2.83;;;2.30;99.90;;;;;;4973902;28;20511;-62
2023/01/28 02:29:18;;;;;;;4.53;3.33;;;2.30;99.90;;;;;;4969445;28;20526;-62
2023/01/28 02:31:53;;;;;;;3.95;2.88;;;2.30;99.90;;;;;;4971519;28;20097;-63
2023/01/28 02:34:29;;;;;;;3.47;2.65;;;2.30;99.90;;;;;;4957054;28;20055;-63
2023/01/28 02:37:00;;;;;;;5.75;3.28;;;2.30;99.90;;;;;;4957778;28;20495;-62
2023/01/28 02:39:32;;;;;;;4.32;3.15;;;2.30;99.90;;;;;;4958454;28;21381;-63
2023/01/28 02:42:05;;;;;;;4.70;3.03;;;2.30;99.90;;;;;;4974821;28;20047;-63
2023/01/28 02:44:33;;;;;;;3.55;2.80;;;2.30;99.90;;;;;;4957120;28;20054;-63
2023/01/28 02:49:49;;;;;;;4.60;3.17;;;2.40;99.90;;;;;;4956684;28;20435;-63
2023/01/28 02:55:23;;;;;;;4.15;3.13;;;2.30;99.90;;;;;;4973632;28;20101;-64
2023/01/28 02:58:00;;;;;;;3.78;3.20;;;2.30;99.90;;;;;;4974918;28;20070;-64
2023/01/28 03:00:36;;;;;;;4.25;3.50;;;2.40;99.90;;;;;;4958023;28;20451;-64
2023/01/28 03:03:16;;;;;;;8.23;3.58;;;2.40;99.90;;;;;;4974067;28;20594;-64
2023/01/28 03:06:02;;;;;;;3.78;2.90;;;2.40;99.90;;;;;;4957717;28;20047;-63
2023/01/28 03:39:06;;;;;;;5.07;3.60;;;2.30;99.90;;;;;;4973409;28;20043;-63
2023/01/28 03:41:33;;;;;;;4.07;3.28;;;2.30;99.90;;;;;;4973874;28;20046;-64
2023/01/28 03:46:44;;;;;;;5.15;3.45;;;2.30;99.90;;;;;;4973665;28;20509;-64
2023/01/28 03:49:12;;;;;;;5.05;3.67;;;2.30;99.90;;;;;;4974228;28;20050;-64
2023/01/28 03:51:39;;;;;;;4.30;3.30;;;2.20;99.90;;;;;;4973256;28;20462;-64
2023/01/28 03:54:06;;;;;;;5.22;3.65;;;2.30;99.90;;;;;;4973884;28;20050;-63
2023/01/28 03:56:36;;;;;;;3.92;3.40;;;2.30;99.90;;;;;;4956490;28;20082;-63
2023/01/28 03:59:03;;;;;;;4.65;3.30;;;2.30;99.90;;;;;;4956243;28;20055;-63
2023/01/28 04:01:30;;;;;;;5.72;3.42;;;2.20;99.90;;;;;;4973949;28;20054;-63
2023/01/28 04:03:57;;;;;;;4.50;3.53;;;2.20;99.90;;;;;;4956357;28;20047;-62
2023/01/28 04:06:25;;;;;;;4.03;3.22;;;2.20;99.90;;;;;;4973274;28;20046;-62
2023/01/28 04:08:53;;;;;;;4.75;3.50;;;2.10;99.90;;;;;;4956767;28;20058;-62
2023/01/28 04:11:20;;;;;;;4.53;3.75;;;2.20;99.90;;;;;;4956580;28;20054;-62
2023/01/28 04:13:48;;;;;;;4.85;3.80;;;2.10;99.90;;;;;;4955639;28;20057;-62
2023/01/28 04:16:16;;;;;;;4.82;3.55;;;2.10;99.90;;;;;;4972883;28;20491;-62
2023/01/28 04:18:44;;;;;;;5.32;4.05;;;2.10;99.90;;;;;;4954084;28;20054;-62
2023/01/28 04:21:12;;;;;;;4.68;3.67;;;2.10;99.90;;;;;;4972382;28;20554;-63
2023/01/28 04:23:40;;;;;;;4.47;3.80;;;2.10;99.90;;;;;;4971839;28;20138;-63
2023/01/28 04:26:07;;;;;;;6.80;4.55;;;2.00;99.90;;;;;;4972330;28;20042;-62
2023/01/28 04:28:34;;;;;;;10.55;5.20;;;2.00;99.90;;;;;;4972250;28;20042;-62
2023/01/28 04:31:01;;;;;;;6.55;4.63;;;2.00;99.90;;;;;;4953891;28;20058;-63
2023/01/28 04:33:28;;;;;;;6.15;4.80;;;2.00;99.90;;;;;;4973111;28;20455;-63
2023/01/28 04:35:55;;;;;;;6.63;4.30;;;2.00;99.90;;;;;;4955402;28;20043;-63
2023/01/28 04:38:22;;;;;;;6.57;4.75;;;2.00;99.90;;;;;;4955760;28;20058;-62
2023/01/28 04:40:54;;;;;;;6.10;4.57;;;1.90;99.90;;;;;;4972426;28;20054;-62
2023/01/28 04:43:21;;;;;;;6.47;4.55;;;1.90;99.90;;;;;;4955886;28;20046;-62
2023/01/28 04:45:49;;;;;;;8.48;4.78;;;1.90;99.90;;;;;;4972875;28;20054;-63
2023/01/28 04:48:16;;;;;;;5.80;4.68;;;1.90;99.90;;;;;;4954889;28;20077;-62
2023/01/28 04:50:44;;;;;;;6.32;4.53;;;1.90;99.90;;;;;;4972208;28;20081;-62
2023/01/28 04:53:12;;;;;;;9.40;4.35;;;1.90;99.90;;;;;;4954984;28;21306;-62
2023/01/28 04:55:38;;;;;;;6.68;4.93;;;1.90;99.90;;;;;;4955665;28;20506;-62
2023/01/28 04:58:07;;;;;;;5.90;4.70;;;1.80;99.90;;;;;;4972689;28;20054;-63
2023/01/28 05:00:34;;;;;;;6.60;4.80;;;1.80;99.90;;;;;;4972777;28;20051;-63
2023/01/28 05:03:01;;;;;;;9.20;5.03;;;1.80;99.90;;;;;;4972082;28;20069;-62
2023/01/28 05:05:28;;;;;;;9.45;5.35;;;1.90;99.90;;;;;;4955819;28;20058;-62
2023/01/28 05:07:56;;;;;;;5.82;4.85;;;1.80;99.90;;;;;;4967103;28;20055;-62
2023/01/28 05:10:24;;;;;;;8.60;5.25;;;1.80;99.90;;;;;;4970344;28;20050;-63
2023/01/28 05:12:51;;;;;;;6.03;4.75;;;1.80;99.90;;;;;;4970265;28;20053;-63
2023/01/28 05:15:20;;;;;;;6.45;4.80;;;1.80;99.90;;;;;;4970166;28;20055;-62
2023/01/28 05:17:47;;;;;;;7.15;5.32;;;1.80;99.90;;;;;;4971264;28;20062;-61
2023/01/28 05:20:14;;;;;;;8.63;4.85;;;1.80;99.90;;;;;;4954776;28;20522;-63
2023/01/28 05:22:42;;;;;;;5.70;4.82;;;1.80;99.90;;;;;;4954928;28;20046;-62
2023/01/28 05:25:09;;;;;;;7.50;5.13;;;1.80;99.90;;;;;;4971774;28;20508;-62
2023/01/28 05:27:36;;;;;;;7.13;4.55;;;1.80;99.90;;;;;;4955136;28;20375;-62
2023/01/28 05:30:05;;;;;;;6.40;4.88;;;1.80;99.90;;;;;;4955203;28;20055;-61
2023/01/28 05:32:33;;;;;;;6.10;4.53;;;1.80;99.90;;;;;;4955371;28;20489;-63
2023/01/28 05:35:00;;;;;;;8.65;5.22;;;1.80;99.90;;;;;;4955742;28;20066;-62
2023/01/28 05:37:27;;;;;;;6.97;4.97;;;1.80;99.90;;;;;;4954671;28;20051;-62
2023/01/28 05:39:54;;;;;;;8.88;5.13;;;1.80;99.90;;;;;;4955516;28;20046;-62
2023/01/28 05:42:21;;;;;;;6.53;4.93;;;1.80;99.90;;;;;;4972073;28;20042;-62
2023/01/28 05:44:48;;;;;;;6.00;4.68;;;1.70;99.90;;;;;;4954393;28;20074;-62
2023/01/28 05:47:15;;;;;;;6.90;5.25;;;1.70;99.90;;;;;;4955392;28;20059;-63
2023/01/28 05:49:45;;;;;;;8.25;5.80;;;1.70;99.90;;;;;;4955428;28;20495;-62
2023/01/28 05:52:12;;;;;;;7.60;5.87;;;1.70;99.90;;;;;;4954738;28;20081;-62
2023/01/28 05:54:39;;;;;;;7.85;6.10;;;1.70;99.90;;;;;;4971943;28;20290;-63
2023/01/28 05:57:06;;;;;;;8.00;5.97;;;1.70;99.90;;;;;;4954946;28;20459;-62
2023/01/28 05:59:32;;;;;;;7.18;6.07;;;1.70;99.90;;;;;;4970252;28;20051;-61
2023/01/28 06:01:59;;;;;;;8.93;6.50;;;1.70;99.90;;;;;;4958383;28;20058;-62
2023/01/28 06:04:26;;;;;;;10.60;7.10;;;1.70;99.90;;;;;;4975627;28;20043;-62
2023/01/28 06:06:54;;;;;;;8.02;6.32;;;1.70;99.90;;;;;;4974505;28;20055;-62
2023/01/28 06:09:21;;;;;;;8.65;6.85;;;1.70;99.90;;;;;;4976098;28;20061;-63
2023/01/28 06:11:49;;;;;;;8.70;6.45;;;1.70;99.90;;;;;;4975313;28;20483;-62
2023/01/28 06:14:16;;;;;;;9.23;6.75;;;1.70;99.90;;;;;;4975591;28;20396;-63
2023/01/28 06:16:43;;;;;;;8.02;6.05;;;1.70;99.90;;;;;;4975853;28;20047;-62
2023/01/28 06:19:09;;;;;;;9.52;6.43;;;1.70;99.90;;;;;;4975302;28;20051;-63
2023/01/28 06:21:36;;;;;;;9.63;7.10;;;1.70;99.90;;;;;;4975119;28;20042;-63
2023/01/28 06:24:05;;;;;;;9.10;6.50;;;1.70;99.90;;;;;;4958361;28;20059;-62
2023/01/28 06:26:32;;;;;;;9.27;7.07;;;1.70;99.90;;;;;;4972154;28;20058;-63
2023/01/28 06:28:59;;;;;;;8.32;6.75;;;1.70;99.90;;;;;;4969185;28;20101;-63
2023/01/28 06:31:26;;;;;;;10.35;6.88;;;1.70;99.90;;;;;;4974714;28;20499;-63
2023/01/28 06:33:52;;;;;;;10.68;6.85;;;1.70;99.90;;;;;;4956836;28;20043;-63
2023/01/28 06:36:19;;;;;;;9.52;6.85;;;1.70;99.90;;;;;;4957766;28;20110;-64
2023/01/28 06:38:46;;;;;;;8.40;6.43;;;1.70;99.90;;;;;;4953166;28;20066;-63
2023/01/28 06:41:14;;;;;;;8.70;6.43;;;1.70;99.90;;;;;;4974563;28;20062;-63
2023/01/28 06:43:41;;;;;;;10.23;6.82;;;1.70;99.90;;;;;;4972568;28;20050;-64
2023/01/28 06:46:08;;;;;;;7.40;6.20;;;1.70;99.90;;;;;;4965478;28;20050;-62
2023/01/28 06:48:35;;;;;;;9.40;7.10;;;1.70;99.90;;;;;;4974768;28;20058;-63
2023/01/28 06:51:02;;;;;;;9.50;6.60;;;1.60;99.90;;;;;;4974250;28;20042;-64
2023/01/28 06:53:29;;;;;;;8.20;6.57;;;1.60;99.90;;;;;;4975465;28;20403;-63
2023/01/28 06:55:56;;;;;;;9.13;6.78;;;1.60;99.90;;;;;;4974164;28;20043;-63
2023/01/28 06:58:24;;;;;;;9.75;6.43;;;1.60;99.90;;;;;;4971131;28;20062;-63
2023/01/28 07:00:52;;;;;;;9.73;7.10;;;1.70;99.90;;;;;;4954855;28;20058;-63
2023/01/28 07:03:19;;;;;;;8.60;6.35;;;1.60;99.90;;;;;;4954691;28;20047;-65
2023/01/28 07:05:46;;;;;;;8.02;6.28;;;1.60;99.90;;;;;;4973090;28;20047;-63
2023/01/28 07:08:13;;;;;;;8.82;6.32;;;1.60;99.90;;;;;;4973266;28;20046;-62
2023/01/28 07:10:40;;;;;;;7.35;5.60;;;1.60;99.90;;;;;;4973173;28;20055;-62
2023/01/28 07:13:07;;;;;;;9.35;6.60;;;1.60;99.90;;;;;;4971485;28;20051;-62
2023/01/28 07:15:35;;;;;;;9.13;6.55;;;1.50;99.90;;;;;;4972560;28;20051;-63
2023/01/28 07:18:02;;;;;;;8.00;5.95;;;1.50;99.90;;;;;;4956027;28;20150;-63
2023/01/28 07:20:29;;;;;;;6.97;5.32;;;1.50;99.90;;;;;;4972566;28;20050;-62
2023/01/28 07:22:56;;;;;;;6.88;5.90;;;1.50;99.90;;;;;;4957387;28;20039;-62
2023/01/28 07:25:22;;;;;;;8.05;6.13;;;1.40;99.90;;;;;;4955235;28;20161;-63
2023/01/28 07:27:51;;;;;;;11.10;5.75;;;1.30;99.90;;;;;;4957371;28;20058;-63
2023/01/28 07:30:19;;;;;;;7.22;5.75;;;1.30;99.90;;;;;;4960078;28;20051;-63
2023/01/28 07:32:52;;;;;;;9.65;6.20;;;1.20;99.90;;;;;;4971445;28;20475;-63
2023/01/28 07:35:19;;;;;;;8.07;6.18;;;1.10;99.90;;;;;;4964662;28;20089;-63
2023/01/28 07:37:52;;;;;;;7.32;5.80;;;1.00;99.90;;;;;;4954521;28;20047;-64
2023/01/28 07:40:19;;;;;;;8.15;6.50;;;0.90;99.90;;;;;;4955479;28;20146;-63
2023/01/28 07:42:46;;;;;;;8.57;5.70;;;0.80;99.90;;;;;;4960157;28;20488;-62
2023/01/28 07:45:14;;;;;;;6.95;5.70;;;0.70;99.90;;;;;;4954782;28;20103;-62
2023/01/28 07:47:41;;;;;;;7.47;5.80;;;0.70;99.90;;;;;;4955606;28;20487;-62
2023/01/28 07:50:11;;;;;;;8.45;6.35;;;0.70;99.90;;;;;;4972095;28;20451;-62
2023/01/28 07:52:43;;;;;;;7.63;5.87;;;0.70;99.90;;;;;;4970760;28;20058;-62
2023/01/28 07:55:14;;;;;;;8.63;5.90;;;0.70;99.90;;;;;;4958601;28;20389;-64
2023/01/28 07:57:49;;;;;;;8.55;6.07;;;0.80;99.90;;;;;;4972819;28;20069;-63
2023/01/28 08:00:17;;;;;;;8.07;5.88;;;0.70;99.90;;;;;;4954946;28;20086;-61
2023/01/28 08:02:46;;;;;;;8.40;6.25;;;0.70;99.90;;;;;;4972710;28;20050;-62
2023/01/28 08:05:19;;;;;;;8.15;6.40;;;0.90;99.90;;;;;;4971628;28;20286;-62
2023/01/28 08:07:47;;;;;;;13.65;7.03;;;0.70;99.90;;;;;;4960269;28;20054;-62
2023/01/28 08:10:15;;;;;;;8.80;5.60;;;0.70;99.90;;;;;;4973115;28;20403;-62
2023/01/28 08:12:50;;;;;;;8.82;6.45;;;0.70;99.90;;;;;;4969491;28;20046;-63
2023/01/28 08:15:17;;;;;;;8.75;6.50;;;0.90;99.90;;;;;;4969973;28;20062;-63
2023/01/28 08:17:44;;;;;;;11.93;7.53;;;1.00;99.90;;;;;;4954428;28;20498;-63
2023/01/28 08:20:12;;;;;;;8.07;6.72;;;1.50;99.90;;;;;;4954350;28;20054;-63
2023/01/28 08:22:40;;;;;;;8.25;6.47;;;2.40;99.90;;;;;;4953978;28;20138;-62
2023/01/28 08:25:08;;;;;;;10.15;6.35;;;3.80;99.90;;;;;;4953317;28;20415;-62
2023/01/28 08:27:35;;;;;;;6.75;5.50;;;5.10;99.90;;;;;;4954746;28;20059;-62
2023/01/28 08:30:02;;;;;;;6.75;5.65;;;6.30;99.90;;;;;;4972286;28;20446;-62
2023/01/28 08:32:29;;;;;;;7.57;5.32;;;6.50;99.90;;;;;;4972446;28;20042;-63
2023/01/28 08:34:56;;;;;;;6.75;5.70;;;6.20;99.90;;;;;;4955602;28;20180;-63
2023/01/28 08:37:23;;;;;;;6.43;5.05;;;5.30;99.90;;;;;;4971723;28;20051;-64
2023/01/28 08:39:51;;;;;;;5.97;5.32;;;4.70;99.90;;;;;;4972201;28;20051;-62
2023/01/28 08:42:18;;;;;;;7.20;5.28;;;4.30;99.90;;;;;;4969921;28;20503;-63
2023/01/28 08:44:46;;;;;;;6.40;5.70;;;3.90;99.90;;;;;;4952993;28;20084;-62
2023/01/28 08:47:14;;;;;;;7.15;5.70;;;3.60;99.90;;;;;;4966145;28;20406;-62
2023/01/28 08:49:41;;;;;;;7.25;6.05;;;3.70;99.90;;;;;;4973076;28;20047;-63
2023/01/28 08:52:08;;;;;;;6.80;5.05;;;4.70;99.90;;;;;;4967908;28;20054;-63
2023/01/28 08:54:35;;;;;;;9.02;5.88;;;5.90;99.90;;;;;;4965758;28;20053;-63
2023/01/28 08:57:04;;;;;;;6.65;5.07;;;7.10;99.90;;;;;;4972647;28;20054;-63
2023/01/28 08:59:31;;;;;;;6.68;5.28;;;8.30;99.90;;;;;;4969927;28;20053;-63
2023/01/28 09:01:58;;;;;;;5.93;5.05;;;9.40;99.90;;;;;;4954814;28;20122;-63
2023/01/28 09:04:25;;;;;;;5.75;5.05;;;9.70;99.90;;;;;;4971309;28;20487;-63
2023/01/28 09:06:51;;;;;;;6.18;5.18;;;10.30;99.90;;;;;;4958417;28;20054;-63
2023/01/28 09:09:18;;;;;;;6.55;4.60;;;10.60;99.90;;;;;;4951736;28;20427;-63
2023/01/28 09:11:45;;;;;;;6.75;4.50;;;11.00;99.90;;;;;;4971053;28;20101;-63
2023/01/28 09:14:14;;;;;;;5.22;4.30;;;11.70;99.90;;;;;;4971731;28;20065;-64
2023/01/28 09:16:41;;;;;;;5.40;4.57;;;11.70;98.40;;;;;;4954064;28;20496;-64
2023/01/28 09:19:07;;;;;;;4.88;3.95;;;11.40;97.00;;;;;;4971626;28;20047;-63
2023/01/28 09:21:34;;;;;;;5.85;3.47;;;11.80;96.40;;;;;;4971175;28;20065;-63
2023/01/28 09:24:01;;;;;;;6.13;4.82;;;12.60;98.00;;;;;;4952133;28;20403;-63
2023/01/28 09:26:28;;;;;;;7.70;4.50;;;12.70;92.90;;;;;;4972217;28;20058;-63
2023/01/28 09:28:55;;;;;;;5.75;4.05;;;12.80;92.90;;;;;;4972791;28;20058;-63
2023/01/28 09:31:24;;;;;;;4.43;3.90;;;13.00;93.70;;;;;;4955185;28;20426;-63
2023/01/28 09:33:55;;;;;;;5.30;4.55;;;12.70;93.00;;;;;;4954834;28;20055;-63
2023/01/28 09:36:22;;;;;;;4.15;3.60;;;12.80;92.50;;;;;;4957900;28;20054;-64
2023/01/28 09:38:49;;;;;;;5.10;4.22;;;13.30;90.40;;;;;;4959685;28;20490;-65
2023/01/28 09:41:26;;;;;;;6.03;3.95;;;13.10;91.60;;;;;;4958699;28;20509;-65
2023/01/28 09:44:17;;;;;;;4.30;3.85;;;12.00;92.80;;;;;;4958416;28;20051;-62
2023/01/28 09:46:45;;;;;;;4.63;4.22;;;11.20;93.20;;;;;;4975340;28;20499;-63
2023/01/28 09:49:19;;;;;;;4.75;4.22;;;10.30;95.10;;;;;;4959224;28;20059;-63
2023/01/28 09:51:52;;;;;;;5.45;4.32;;;9.60;96.70;;;;;;4972821;28;20047;-63
2023/01/28 09:54:32;;;;;;;5.03;4.32;;;9.80;97.70;;;;;;4975023;28;20086;-64
2023/01/28 09:57:04;;;;;;;;;;;9.20;97.90;;;;;;4976296;28;20047;-63
2023/01/28 09:59:35;;;;;;;4.95;4.00;;;8.70;99.00;;;;;;4959065;28;19957;-63
2023/01/28 10:02:24;;;;;;;4.82;3.90;;;8.10;99.90;;;;;;4976512;28;20460;-63
2023/01/28 10:04:59;;;;;;;5.50;4.20;;;8.90;99.90;;;;;;4956921;28;20059;-67
2023/01/28 10:07:44;;;;;;;8.48;5.15;;;10.10;99.10;;;;;;4975836;28;20059;-64
2023/01/28 10:10:15;;;;;;;5.70;4.20;;;10.50;98.10;;;;;;4976051;28;20411;-63
2023/01/28 10:13:07;;;;;;;4.78;3.88;;;10.10;98.60;;;;;;4975380;28;20396;-63
2023/01/28 10:15:56;;;;;;;6.13;4.45;;;10.70;97.80;;;;;;4956295;28;20051;-63
2023/01/28 10:18:31;;;;;;;6.57;4.20;;;12.10;95.80;;;;;;4987465;28;20054;-64
2023/01/28 10:21:07;;;;;;;5.38;4.10;;;12.80;94.10;;;;;;4975725;28;20046;-63
2023/01/28 10:23:45;;;;;;;6.05;3.95;;;13.60;93.50;;;;;;4957864;28;20510;-63
2023/01/28 10:26:22;;;;;;;4.30;3.58;;;14.00;90.90;;;;;;4974232;28;20055;-64
2023/01/28 10:28:54;;;;;;;4.90;3.83;;;15.40;89.30;;;;;;4975524;28;20051;-64
2023/01/28 10:31:22;;;;;;;5.40;3.70;;;15.30;86.20;;;;;;4957177;28;20566;-65
2023/01/28 10:33:51;;;;;;;5.50;3.63;;;14.80;85.10;;;;;;4956803;28;20054;-65
2023/01/28 10:36:18;;;;;;;4.78;3.20;;;13.80;86.10;;;;;;4969303;28;20073;-64
2023/01/28 10:38:45;;;;;;;6.13;4.15;;;14.30;89.40;;;;;;4956755;28;20059;-65
2023/01/28 10:41:19;;;;;;;6.22;4.10;;;12.40;90.00;;;;;;4973397;28;20050;-63
2023/01/28 10:43:47;;;;;;;5.20;4.10;;;11.60;92.20;;;;;;4956492;28;20140;-63
2023/01/28 10:46:18;;;;;;;7.63;4.28;;;11.40;92.90;;;;;;4956942;28;20054;-63
2023/01/28 10:48:48;;;;;;;6.20;4.03;;;10.70;93.40;;;;;;4972760;28;20058;-64
2023/01/28 10:51:18;;;;;;;4.63;4.13;;;10.20;95.20;;;;;;4960716;28;20058;-62
2023/01/28 10:53:46;;;;;;;6.68;4.65;;;9.60;96.60;;;;;;4956244;28;20603;-63
2023/01/28 10:56:16;;;;;;;6.05;4.28;;;9.30;98.50;;;;;;4956568;28;20417;-64
2023/01/28 10:58:58;;;;;;;5.97;4.75;;;9.00;99.90;;;;;;4973887;28;20062;-64
2023/01/28 11:01:26;;;;;;;6.88;5.05;;;9.30;99.20;;;;;;4971683;28;20054;-64
2023/01/28 11:03:55;;;;;;;5.22;4.63;;;9.30;99.50;;;;;;4956324;28;20054;-63
2023/01/28 11:06:29;;;;;;;6.30;4.60;;;9.90;99.00;;;;;;4957852;28;20168;-63
2023/01/28 11:08:56;;;;;;;5.32;4.32;;;10.10;98.20;;;;;;4955788;28;20492;-64
2023/01/28 11:11:26;;;;;;;6.68;5.03;;;10.20;98.50;;;;;;4973131;28;20055;-64
2023/01/28 11:13:57;;;;;;;6.43;4.82;;;9.60;98.90;;;;;;4956376;28;20130;-64
2023/01/28 11:16:25;;;;;;;6.03;4.57;;;9.60;99.40;;;;;;4955007;28;20467;-62
2023/01/28 11:18:54;;;;;;;6.38;4.55;;;8.70;99.90;;;;;;4954515;28;20102;-63
2023/01/28 11:21:24;;;;;;;5.55;4.50;;;8.40;99.90;;;;;;4956264;28;20535;-63
2023/01/28 11:23:56;;;;;;;5.70;5.00;;;8.40;99.90;;;;;;4953379;28;20055;-63
2023/01/28 11:26:25;;;;;;;6.45;4.88;;;8.20;99.90;;;;;;4972558;28;20054;-63
2023/01/28 11:28:53;;;;;;;6.75;5.35;;;7.90;99.90;;;;;;4960250;28;20051;-63
2023/01/28 11:31:23;;;;;;;6.15;4.80;;;7.50;99.90;;;;;;4955432;28;20054;-63
2023/01/28 11:33:52;;;;;;;8.15;5.55;;;7.20;99.90;;;;;;4972282;28;20042;-63
2023/01/28 11:36:21;;;;;;;7.75;5.30;;;7.40;99.90;;;;;;4972126;28;20114;-63
2023/01/28 11:38:51;;;;;;;6.38;5.22;;;7.40;99.90;;;;;;4955194;28;20047;-63
2023/01/28 11:41:24;;;;;;;5.40;4.57;;;7.40;99.90;;;;;;4955530;28;20054;-63
2023/01/28 11:43:51;;;;;;;6.53;4.70;;;7.30;99.90;;;;;;4971828;28;20047;-62
2023/01/28 11:46:38;;;;;;;6.57;5.18;;;7.40;99.90;;;;;;4955701;28;20554;-63
2023/01/28 11:49:13;;;;;;;6.55;5.20;;;7.40;99.90;;;;;;4971623;28;20050;-63
2023/01/28 11:51:44;;;;;;;7.53;5.82;;;7.30;99.90;;;;;;4955909;28;20052;-63
2023/01/28 11:54:33;;;;;;;7.75;5.07;;;7.30;99.90;;;;;;4971246;28;20046;-63
2023/01/28 11:57:17;;;;;;;8.75;5.93;;;7.20;99.90;;;;;;4972043;28;20054;-63
2023/01/28 11:59:59;;;;;;;7.13;5.32;;;7.00;99.90;;;;;;4955114;28;20051;-63
2023/01/28 12:02:43;;;;;;;7.60;5.65;;;7.10;99.90;;;;;;4955701;28;20053;-62
2023/01/28 12:05:21;;;;;;;8.43;5.32;;;7.00;99.90;;;;;;4953618;28;20049;-63
2023/01/28 12:07:54;;;;;;;8.77;5.28;;;6.80;99.90;;;;;;4970636;28;20128;-63
2023/01/28 12:10:29;;;;;;;7.30;5.43;;;6.40;99.90;;;;;;4972097;28;20051;-68
2023/01/28 12:13:17;;;;;;;6.75;5.00;;;6.40;99.90;;;;;;4971804;28;20074;-65
2023/01/28 12:16:12;;;;;;;7.00;5.22;;;6.20;99.90;;;;;;4954891;28;20066;-66
2023/01/28 12:19:13;;;;;;;7.20;5.10;;;6.10;99.90;;;;;;4978175;28;20051;-65
2023/01/28 12:21:53;;;;;;;7.55;5.43;;;6.30;99.90;;;;;;4951261;28;20127;-66
2023/01/28 12:24:35;;;;;;;7.40;5.70;;;6.50;99.90;;;;;;4961521;28;20042;-65
2023/01/28 12:27:16;;;;;;;7.78;4.88;;;8.10;99.90;;;;;;4971411;28;20058;-65
2023/01/28 12:29:54;;;;;;;6.40;4.78;;;10.20;99.90;;;;;;4972156;28;20047;-66
2023/01/28 12:32:38;;;;;;;6.88;4.40;;;11.80;99.90;;;;;;4971734;28;20106;-65
2023/01/28 12:35:22;;;;;;;8.63;5.03;;;13.30;97.90;;;;;;4955317;28;20062;-80
2023/01/28 12:38:01;;;;;;;5.93;4.55;;;13.50;95.80;;;;;;4970858;28;20051;-75
2023/01/28 12:40:49;;;;;;;6.25;4.90;;;14.10;93.20;;;;;;4953094;28;20050;-75
2023/01/28 12:43:22;;;;;;;6.38;4.95;;;13.90;92.70;;;;;;4960701;28;20058;-76
2023/01/28 12:45:55;;;;;;;5.85;5.07;;;14.90;92.00;;;;;;4953818;28;20054;-75
2023/01/28 12:48:29;;;;;;;6.10;4.72;;;14.60;92.60;;;;;;4971572;28;20058;-76
2023/01/28 12:51:02;;;;;;;5.68;4.50;;;14.80;91.60;;;;;;4950928;28;20789;-78
2023/01/28 12:53:36;;;;;;;6.75;4.90;;;14.60;91.10;;;;;;4970777;28;20152;-78
2023/01/28 12:56:08;;;;;;;5.90;4.68;;;15.30;90.50;;;;;;4961831;28;20058;-77
2023/01/28 12:58:40;;;;;;;8.27;4.97;;;15.60;88.50;;;;;;4957154;28;20042;-77
2023/01/28 13:01:13;;;;;;;8.40;5.15;;;15.30;88.60;;;;;;4953307;28;20051;-79
2023/01/28 13:03:45;;;;;;;5.97;4.22;;;15.60;87.30;;;;;;4957440;28;20046;-78
2023/01/28 13:06:17;;;;;;;5.97;4.40;;;15.50;88.00;;;;;;4971704;28;20086;-79
2023/01/28 13:08:44;;;;;;;6.40;4.97;;;16.40;87.50;;;;;;4959529;28;20047;-78
2023/01/28 13:11:15;;;;;;;6.38;4.65;;;16.50;84.20;;;;;;4952999;28;20054;-79
2023/01/28 13:13:46;;;;;;;6.88;4.80;;;16.30;82.90;;;;;;4968614;28;20083;-79
2023/01/28 13:16:14;;;;;;;6.20;4.47;;;15.30;84.90;;;;;;4960504;28;20058;-78
2023/01/28 13:18:45;;;;;;;6.43;4.93;;;15.20;86.30;;;;;;4968594;28;20053;-78
2023/01/28 13:21:16;;;;;;;6.65;4.75;;;14.90;85.80;;;;;;4971158;28;20051;-79
2023/01/28 13:23:45;;;;;;;5.35;4.30;;;14.40;86.20;;;;;;4954288;28;20046;-78
2023/01/28 13:26:28;;;;;;;6.18;4.70;;;13.40;90.00;;;;;;4969747;28;20115;-78
2023/01/28 13:29:08;;;;;;;7.80;5.00;;;12.70;91.90;;;;;;4968773;28;20044;-78
2023/01/28 13:31:40;;;;;;;5.40;4.25;;;11.30;94.00;;;;;;4952790;28;20105;-78
2023/01/28 13:34:09;;;;;;;7.30;4.60;;;10.90;95.60;;;;;;4971287;28;20612;-78
2023/01/28 13:36:43;;;;;;;5.90;4.70;;;10.10;97.30;;;;;;4954772;28;20146;-77
2023/01/28 13:39:19;;;;;;;7.80;4.82;;;9.40;99.90;;;;;;4954329;28;20083;-77
2023/01/28 13:41:47;;;;;;;6.13;4.60;;;8.90;99.90;;;;;;4953486;28;20055;-77
2023/01/28 13:44:27;;;;;;;7.25;4.90;;;8.50;99.90;;;;;;4955680;28;20054;-77
2023/01/28 13:46:58;;;;;;;6.72;4.88;;;8.10;99.90;;;;;;4961605;28;20050;-77
2023/01/28 13:49:32;;;;;;;7.38;4.88;;;8.00;99.90;;;;;;4961834;28;20526;-77
2023/01/28 13:52:08;;;;;;;7.85;4.68;;;8.00;99.90;;;;;;4962404;28;20058;-78